createdAt,value
2023-01-11T00:01:08.944Z,8.30
2023-01-11T00:03:38.788Z,9.53
2023-01-11T00:06:08.259Z,8.73
2023-01-11T00:08:36.663Z,12.10
2023-01-11T00:11:05.399Z,12.90
2023-01-11T00:13:34.388Z,11.90
2023-01-11T00:16:07.729Z,9.73
2023-01-11T00:18:37.336Z,9.83
2023-01-11T00:21:08.330Z,10.50
2023-01-11T00:23:38.100Z,7.33
2023-01-11T00:26:07.611Z,7.47
2023-01-11T00:28:36.113Z,8.23
2023-01-11T00:31:04.867Z,8.23
2023-01-11T00:33:33.443Z,11.33
2023-01-11T00:36:02.049Z,6.70
2023-01-11T00:38:51.838Z,6.87
2023-01-11T00:41:38.298Z,6.93
2023-01-11T00:44:24.933Z,9.83
2023-01-11T00:47:11.243Z,8.60
2023-01-11T00:49:39.710Z,6.83
2023-01-11T00:52:09.419Z,5.80
2023-01-11T00:54:40.791Z,8.30
2023-01-11T00:57:09.994Z,7.60
2023-01-11T00:59:40.687Z,5.77
2023-01-11T01:02:10.382Z,7.37
2023-01-11T01:04:38.951Z,6.57
2023-01-11T01:07:08.141Z,9.53
2023-01-11T01:09:36.565Z,6.73
2023-01-11T01:12:07.163Z,8.73
2023-01-11T01:14:36.277Z,5.97
2023-01-11T01:17:07.941Z,7.23
2023-01-11T01:19:38.141Z,6.40
2023-01-11T01:22:06.710Z,6.67
2023-01-11T01:24:35.826Z,6.20
2023-01-11T01:27:05.688Z,7.10
2023-01-11T01:29:34.244Z,6.70
2023-01-11T01:32:02.669Z,6.83
2023-01-11T01:34:31.111Z,3.93
2023-01-11T01:36:59.518Z,6.00
2023-01-11T01:39:28.147Z,6.50
2023-01-11T01:41:56.560Z,5.40
2023-01-11T01:45:06.659Z,4.80
2023-01-11T01:47:43.934Z,4.33
2023-01-11T01:50:20.578Z,3.27
2023-01-11T01:52:53.077Z,3.00
2023-01-11T01:55:29.581Z,5.33
2023-01-11T01:57:59.821Z,4.87
2023-01-11T02:00:29.735Z,7.60
2023-01-11T02:03:00.215Z,4.17
2023-01-11T02:05:28.979Z,4.37
2023-01-11T02:08:00.897Z,4.20
2023-01-11T02:10:29.356Z,9.37
2023-01-11T02:13:01.237Z,4.13
2023-01-11T02:15:31.191Z,4.63
2023-01-11T02:17:59.634Z,3.67
2023-01-11T02:20:39.521Z,3.90
2023-01-11T02:23:36.308Z,4.37
2023-01-11T02:26:41.376Z,4.17
2023-01-11T02:29:22.214Z,3.50
2023-01-11T02:31:58.231Z,4.83
2023-01-11T02:34:38.583Z,4.03
2023-01-11T02:37:17.714Z,3.73
2023-01-11T02:39:59.167Z,3.93
2023-01-11T02:42:51.227Z,3.30
2023-01-11T02:45:36.956Z,2.70
2023-01-11T02:48:15.324Z,3.57
2023-01-11T02:50:50.726Z,3.30
2023-01-11T02:53:26.850Z,5.67
2023-01-11T02:55:59.793Z,4.10
2023-01-11T02:58:31.074Z,2.30
2023-01-11T03:01:01.802Z,3.13
2023-01-11T03:03:30.283Z,3.83
2023-01-11T03:06:02.102Z,2.70
2023-01-11T03:09:09.024Z,3.77
2023-01-11T03:12:07.862Z,2.57
2023-01-11T03:14:49.684Z,2.40
2023-01-11T03:17:31.447Z,2.80
2023-01-11T03:20:07.611Z,4.43
2023-01-11T03:22:43.080Z,3.17
2023-01-11T03:25:19.548Z,2.50
2023-01-11T03:27:54.201Z,3.10
2023-01-11T03:30:29.975Z,2.93
2023-01-11T03:33:05.423Z,3.27
2023-01-11T03:35:39.479Z,2.80
2023-01-11T03:38:13.590Z,3.77
2023-01-11T03:40:47.026Z,3.70
2023-01-11T03:43:19.107Z,2.33
2023-01-11T03:45:51.620Z,2.60
2023-01-11T03:48:25.334Z,2.23
2023-01-11T03:50:55.981Z,3.13
2023-01-11T03:53:26.901Z,3.53
2023-01-11T03:55:58.873Z,2.37
2023-01-11T03:58:28.495Z,2.23
2023-01-11T04:00:58.080Z,3.17
2023-01-11T04:03:28.798Z,5.00
2023-01-11T04:06:03.210Z,3.33
2023-01-11T04:08:32.341Z,3.97
2023-01-11T04:11:00.902Z,3.77
2023-01-11T04:13:29.375Z,4.63
2023-01-11T04:15:57.925Z,2.43
2023-01-11T04:18:28.805Z,4.47
2023-01-11T04:20:57.278Z,2.53
2023-01-11T04:23:25.720Z,2.57
2023-01-11T04:25:54.486Z,5.03
2023-01-11T04:28:22.938Z,2.43
2023-01-11T04:30:51.374Z,3.33
2023-01-11T04:33:19.835Z,3.33
2023-01-11T04:35:50.418Z,3.23
2023-01-11T04:38:18.931Z,2.30
2023-01-11T04:40:49.163Z,2.03
2023-01-11T04:43:16.604Z,2.40
2023-01-11T04:45:45.057Z,4.07
2023-01-11T04:48:13.566Z,2.63
2023-01-11T04:50:42.073Z,3.20
2023-01-11T04:53:12.056Z,3.50
2023-01-11T04:55:40.632Z,2.07
2023-01-11T04:58:09.104Z,4.67
2023-01-11T05:00:37.495Z,4.37
2023-01-11T05:03:05.967Z,2.37
2023-01-11T05:05:34.535Z,1.90
2023-01-11T05:08:03.004Z,2.63
2023-01-11T05:10:33.750Z,3.33
2023-01-11T05:13:02.200Z,3.60
2023-01-11T05:15:30.597Z,2.63
2023-01-11T05:17:59.935Z,5.43
2023-01-11T05:20:28.352Z,3.13
2023-01-11T05:22:56.900Z,2.73
2023-01-11T05:25:25.447Z,3.27
2023-01-11T05:27:55.411Z,2.63
2023-01-11T05:30:23.867Z,2.47
2023-01-11T05:32:52.341Z,3.00
2023-01-11T05:35:20.789Z,2.73
2023-01-11T05:37:49.278Z,2.60
2023-01-11T05:40:17.855Z,6.23
2023-01-11T05:42:47.773Z,4.63
2023-01-11T05:45:29.123Z,2.47
2023-01-11T05:47:58.636Z,4.43
2023-01-11T05:50:27.437Z,5.33
2023-01-11T05:52:56.187Z,2.00
2023-01-11T05:55:24.725Z,2.20
2023-01-11T05:57:53.240Z,2.03
2023-01-11T06:00:24.057Z,2.30
2023-01-11T06:02:52.634Z,5.37
2023-01-11T06:05:21.140Z,3.60
2023-01-11T06:07:49.679Z,3.03
2023-01-11T06:10:18.401Z,2.93
2023-01-11T06:12:52.310Z,1.60
2023-01-11T06:15:22.181Z,1.70
2023-01-11T06:17:50.612Z,3.10
2023-01-11T06:20:19.369Z,4.73
2023-01-11T06:22:47.832Z,3.00
2023-01-11T06:25:16.403Z,2.70
2023-01-11T06:27:44.920Z,4.20
2023-01-11T06:30:14.429Z,2.87
2023-01-11T06:32:44.236Z,7.40
2023-01-11T06:35:12.691Z,3.40
2023-01-11T06:37:41.095Z,2.30
2023-01-11T06:40:10.893Z,2.20
2023-01-11T06:42:39.412Z,5.00
2023-01-11T06:45:09.529Z,2.47
2023-01-11T06:47:37.958Z,5.57
2023-01-11T06:50:09.232Z,6.57
2023-01-11T06:52:37.740Z,4.53
2023-01-11T06:55:07.132Z,4.57
2023-01-11T06:57:35.707Z,3.20
2023-01-11T07:00:04.950Z,10.30
2023-01-11T07:02:33.551Z,3.23
2023-01-11T07:05:01.975Z,2.77
2023-01-11T07:07:33.798Z,9.17
2023-01-11T07:10:02.315Z,6.50
2023-01-11T07:12:30.796Z,11.17
2023-01-11T07:14:59.374Z,11.40
2023-01-11T07:17:27.994Z,5.40
2023-01-11T07:19:56.392Z,3.43
2023-01-11T07:22:24.833Z,4.50
2023-01-11T07:24:54.665Z,4.57
2023-01-11T07:27:23.165Z,5.83
2023-01-11T07:29:53.444Z,6.37
2023-01-11T07:32:21.967Z,6.03
2023-01-11T07:34:50.371Z,4.60
2023-01-11T07:37:28.309Z,9.40
2023-01-11T07:39:59.291Z,7.07
2023-01-11T07:42:45.594Z,5.13
2023-01-11T07:45:14.163Z,5.90
2023-01-11T07:47:42.569Z,4.20
2023-01-11T07:50:11.827Z,4.03
2023-01-11T07:52:40.353Z,6.03
2023-01-11T07:55:10.899Z,5.07
2023-01-11T07:57:39.336Z,6.27
2023-01-11T08:00:09.041Z,7.97
2023-01-11T08:02:40.113Z,5.57
2023-01-11T08:05:09.462Z,6.80
2023-01-11T08:07:37.961Z,6.43
2023-01-11T08:10:07.553Z,11.43
2023-01-11T08:13:00.253Z,21.00
2023-01-11T08:15:29.055Z,12.13
2023-01-11T08:17:57.518Z,9.73
2023-01-11T08:20:27.137Z,9.23
2023-01-11T08:22:55.758Z,9.03
2023-01-11T08:25:24.296Z,7.30
2023-01-11T08:27:54.164Z,12.80
2023-01-11T08:30:22.783Z,8.37
2023-01-11T08:32:51.182Z,14.07
2023-01-11T08:35:19.753Z,7.30
2023-01-11T08:37:48.239Z,8.17
2023-01-11T08:40:17.005Z,9.73
2023-01-11T08:42:46.389Z,11.03
2023-01-11T08:45:16.408Z,9.23
2023-01-11T08:47:44.951Z,9.83
2023-01-11T08:50:15.430Z,19.63
2023-01-11T08:52:43.892Z,19.07
2023-01-11T08:55:12.539Z,19.47
2023-01-11T08:57:41.058Z,9.13
2023-01-11T09:00:10.788Z,6.10
2023-01-11T09:02:40.665Z,14.23
2023-01-11T09:05:09.957Z,11.20
2023-01-11T09:07:38.442Z,7.53
2023-01-11T09:10:07.984Z,13.47
2023-01-11T09:12:36.425Z,4.30
2023-01-11T09:15:06.159Z,8.80
2023-01-11T09:17:34.814Z,13.77
2023-01-11T09:20:04.977Z,6.90
2023-01-11T09:22:33.952Z,9.73
2023-01-11T09:25:02.758Z,8.83
2023-01-11T09:27:31.297Z,10.63
2023-01-11T09:30:01.549Z,8.80
2023-01-11T09:32:30.874Z,10.33
2023-01-11T09:35:00.902Z,10.20
2023-01-11T09:37:30.847Z,13.63
2023-01-11T09:40:01.629Z,15.03
2023-01-11T09:42:36.562Z,9.53
2023-01-11T09:45:13.756Z,9.80
2023-01-11T09:47:48.126Z,11.10
2023-01-11T09:50:20.557Z,22.63
2023-01-11T09:52:53.461Z,16.43
2023-01-11T09:55:33.017Z,13.23
2023-01-11T09:58:32.045Z,8.97
2023-01-11T10:01:10.515Z,9.40
2023-01-11T10:04:11.908Z,13.83
2023-01-11T10:06:50.171Z,11.00
2023-01-11T10:18:28.737Z,11.57
2023-01-11T10:19:17.065Z,13.97
2023-01-11T10:21:44.194Z,12.37
2023-01-11T10:24:21.096Z,16.63
2023-01-11T10:26:54.241Z,23.23
2023-01-11T10:29:47.562Z,16.27
2023-01-11T10:32:39.252Z,13.53
2023-01-11T10:35:31.357Z,18.87
2023-01-11T10:38:25.726Z,16.07
2023-01-11T10:41:12.101Z,13.30
2023-01-11T10:43:45.752Z,11.63
2023-01-11T10:46:18.222Z,11.70
2023-01-11T10:48:47.693Z,18.60
2023-01-11T10:51:27.431Z,10.40
2023-01-11T10:54:14.580Z,12.30
2023-01-11T10:57:04.790Z,12.03
2023-01-11T10:59:53.618Z,16.60
2023-01-11T11:02:47.331Z,12.40
2023-01-11T11:05:27.709Z,16.13
2023-01-11T11:08:01.298Z,10.37
2023-01-11T11:10:34.037Z,9.90
2023-01-11T11:13:12.049Z,13.00
2023-01-11T11:15:50.676Z,10.40
2023-01-11T11:18:20.223Z,9.07
2023-01-11T11:20:48.843Z,9.20
2023-01-11T11:23:21.724Z,12.07
2023-01-11T11:25:55.475Z,11.87
2023-01-11T11:28:28.978Z,10.30
2023-01-11T11:31:01.341Z,10.23
2023-01-11T11:33:34.262Z,10.67
2023-01-11T11:36:05.379Z,10.63
2023-01-11T11:38:36.495Z,11.70
2023-01-11T11:41:10.875Z,11.00
2023-01-11T11:43:40.408Z,11.20
2023-01-11T11:46:27.539Z,11.23
2023-01-11T11:49:13.519Z,16.97
2023-01-11T11:51:43.548Z,14.43
2023-01-11T11:54:21.089Z,13.27
2023-01-11T11:56:50.201Z,17.50
2023-01-11T11:59:21.942Z,11.80
2023-01-11T12:01:59.240Z,9.90
2023-01-11T12:04:39.215Z,13.53
2023-01-11T12:07:15.056Z,13.80
2023-01-11T12:09:47.499Z,16.10
2023-01-11T12:12:22.962Z,12.30
2023-01-11T12:15:21.644Z,11.10
2023-01-11T12:17:51.735Z,9.07
2023-01-11T12:20:35.775Z,11.77
2023-01-11T12:23:16.943Z,19.10
2023-01-11T12:26:09.630Z,10.83
2023-01-11T12:29:03.732Z,12.80
2023-01-11T12:31:44.265Z,14.83
2023-01-11T12:34:35.536Z,18.20
2023-01-11T12:37:11.423Z,17.00
2023-01-11T12:39:47.946Z,18.13
2023-01-11T12:42:36.345Z,20.10
2023-01-11T12:45:17.213Z,13.63
2023-01-11T12:48:18.838Z,15.73
2023-01-11T12:51:02.231Z,14.87
2023-01-11T12:53:46.082Z,11.73
2023-01-11T12:56:37.267Z,12.33
2023-01-11T12:59:19.874Z,12.53
2023-01-11T13:01:58.598Z,14.90
2023-01-11T13:04:49.245Z,12.43
2023-01-11T13:07:29.275Z,17.00
2023-01-11T13:10:10.624Z,15.13
2023-01-11T13:12:45.845Z,19.33
2023-01-11T13:15:30.028Z,14.57
2023-01-11T13:18:06.125Z,16.67
2023-01-11T13:20:59.917Z,23.00
2023-01-11T13:23:39.273Z,15.60
2023-01-11T13:26:23.035Z,22.23
2023-01-11T13:28:56.407Z,15.87
2023-01-11T13:31:26.045Z,15.27
2023-01-11T13:34:06.820Z,14.30
2023-01-11T13:36:44.138Z,15.00
2023-01-11T13:39:21.796Z,18.80
2023-01-11T13:41:53.355Z,19.13
2023-01-11T13:44:25.857Z,17.80
2023-01-11T13:47:02.665Z,17.27
2023-01-11T13:49:45.281Z,14.03
2023-01-11T13:52:15.934Z,17.13
2023-01-11T13:54:54.686Z,14.83
2023-01-11T13:57:31.599Z,15.20
2023-01-11T14:00:06.174Z,15.00
2023-01-11T14:02:46.712Z,18.03
2023-01-11T14:05:19.609Z,13.33
2023-01-11T14:08:01.230Z,12.30
2023-01-11T14:10:54.715Z,14.00
2023-01-11T14:14:02.137Z,17.17
2023-01-11T14:16:41.807Z,10.37
2023-01-11T14:19:21.791Z,12.40
2023-01-11T14:22:06.925Z,9.73
2023-01-11T14:24:39.479Z,13.07
2023-01-11T14:27:29.433Z,17.63
2023-01-11T14:30:11.610Z,11.43
2023-01-11T14:33:24.989Z,11.30
2023-01-11T14:36:20.843Z,10.73
2023-01-11T14:39:24.755Z,16.07
2023-01-11T14:42:33.650Z,13.53
2023-01-11T14:45:16.953Z,17.73
2023-01-11T14:48:23.673Z,19.13
2023-01-11T14:51:17.946Z,15.07
2023-01-11T14:53:51.620Z,10.83
2023-01-11T14:56:50.598Z,15.87
2023-01-11T14:59:40.002Z,12.93
2023-01-11T15:02:35.928Z,9.40
2023-01-11T15:05:07.170Z,7.03
2023-01-11T15:07:38.671Z,9.77
2023-01-11T15:10:41.972Z,11.63
2023-01-11T15:13:18.685Z,15.90
2023-01-11T15:16:04.920Z,12.20
2023-01-11T15:18:44.799Z,11.57
2023-01-11T15:21:17.543Z,8.67
2023-01-11T15:23:51.939Z,13.43
2023-01-11T15:26:21.918Z,11.10
2023-01-11T15:28:53.233Z,9.70
2023-01-11T15:31:35.124Z,10.00
2023-01-11T15:34:18.434Z,12.17
2023-01-11T15:36:55.699Z,14.77
2023-01-11T15:39:35.047Z,13.53
2023-01-11T15:42:34.110Z,13.47
2023-01-11T15:45:28.633Z,14.97
2023-01-11T15:48:19.649Z,14.53
2023-01-11T15:51:09.640Z,15.13
2023-01-11T15:54:16.012Z,24.70
2023-01-11T15:57:19.050Z,16.50
2023-01-11T16:00:17.727Z,15.73
2023-01-11T16:03:05.994Z,25.30
2023-01-11T16:05:38.659Z,31.67
2023-01-11T16:08:21.623Z,25.60
2023-01-11T16:10:58.379Z,26.63
2023-01-11T16:13:41.910Z,21.47
2023-01-11T16:16:20.328Z,14.17
2023-01-11T16:18:52.712Z,15.23
2023-01-11T16:21:29.903Z,12.13
2023-01-11T16:24:00.194Z,18.87
2023-01-11T16:26:28.879Z,20.00
2023-01-11T16:29:00.151Z,16.30
2023-01-11T16:31:56.111Z,19.03
2023-01-11T16:34:25.427Z,20.20
2023-01-11T16:36:54.077Z,18.07
2023-01-11T16:39:27.031Z,18.93
2023-01-11T16:42:00.623Z,20.93
2023-01-11T16:44:42.229Z,21.10
2023-01-11T16:47:15.963Z,27.53
2023-01-11T16:49:49.365Z,26.63
2023-01-11T16:52:53.628Z,26.97
2023-01-11T16:55:32.553Z,28.67
2023-01-11T16:58:03.606Z,25.03
2023-01-11T17:00:38.123Z,22.50
2023-01-11T17:03:22.574Z,21.63
2023-01-11T17:05:56.324Z,28.03
2023-01-11T17:08:30.438Z,16.83
2023-01-11T17:11:04.215Z,17.10
2023-01-11T17:13:54.330Z,15.97
2023-01-11T17:16:26.092Z,15.77
2023-01-11T17:18:55.638Z,15.03
2023-01-11T17:21:26.701Z,17.30
2023-01-11T17:24:00.024Z,16.20
2023-01-11T17:26:35.323Z,23.37
2023-01-11T17:29:04.014Z,22.27
2023-01-11T17:31:36.140Z,17.10
2023-01-11T17:34:16.615Z,15.63
2023-01-11T17:36:45.896Z,16.93
2023-01-11T17:39:22.623Z,19.10
2023-01-11T17:42:10.405Z,19.20
2023-01-11T17:44:56.477Z,19.57
2023-01-11T17:47:25.653Z,20.00
2023-01-11T17:49:56.761Z,28.33
2023-01-11T17:52:27.348Z,20.67
2023-01-11T17:55:03.415Z,17.47
2023-01-11T17:57:34.227Z,16.37
2023-01-11T18:00:26.412Z,16.17
2023-01-11T18:02:55.993Z,18.57
2023-01-11T18:05:28.817Z,22.43
2023-01-11T18:08:00.772Z,12.57
2023-01-11T18:10:32.783Z,20.13
2023-01-11T18:13:02.736Z,17.47
2023-01-11T18:15:33.522Z,16.90
2023-01-11T18:18:02.607Z,12.83
2023-01-11T18:20:49.034Z,12.70
2023-01-11T18:23:24.699Z,15.70
2023-01-11T18:26:32.054Z,21.67
2023-01-11T18:29:02.070Z,19.93
2023-01-11T18:31:30.591Z,16.60
2023-01-11T18:33:59.606Z,18.67
2023-01-11T18:36:29.988Z,17.37
2023-01-11T18:38:58.425Z,23.87
2023-01-11T18:41:55.663Z,18.73
2023-01-11T18:44:25.627Z,17.23
2023-01-11T18:46:54.336Z,15.77
2023-01-11T18:49:22.822Z,21.17
2023-01-11T18:51:51.237Z,29.47
2023-01-11T18:54:20.357Z,18.90
2023-01-11T18:56:48.783Z,19.57
2023-01-11T18:59:17.236Z,19.13
2023-01-11T19:01:59.021Z,18.60
2023-01-11T19:04:36.199Z,17.40
2023-01-11T19:07:04.737Z,20.80
2023-01-11T19:09:33.269Z,19.27
2023-01-11T19:12:01.919Z,20.10
2023-01-11T19:14:30.400Z,19.80
2023-01-11T19:17:00.224Z,19.07
2023-01-11T19:19:29.595Z,23.90
2023-01-11T19:21:58.035Z,21.33
2023-01-11T19:24:26.700Z,28.37
2023-01-11T19:26:56.639Z,26.90
2023-01-11T19:29:25.563Z,25.37
2023-01-11T19:31:55.835Z,25.93
2023-01-11T19:34:25.968Z,28.77
2023-01-11T19:36:55.370Z,22.33
2023-01-11T19:39:23.813Z,25.23
2023-01-11T19:42:00.044Z,29.80
2023-01-11T19:44:32.432Z,38.03
2023-01-11T19:47:11.202Z,36.13
2023-01-11T19:49:42.125Z,28.30
2023-01-11T19:52:14.062Z,32.80
2023-01-11T19:54:43.445Z,31.87
2023-01-11T19:57:12.610Z,26.10
2023-01-11T19:59:41.136Z,23.57
2023-01-11T20:02:11.170Z,25.13
2023-01-11T20:04:41.355Z,29.07
2023-01-11T20:07:11.370Z,31.77
2023-01-11T20:09:40.578Z,25.07
2023-01-11T20:12:10.356Z,27.93
2023-01-11T20:14:40.724Z,27.20
2023-01-11T20:17:09.803Z,28.43
2023-01-11T20:19:38.292Z,29.57
2023-01-11T20:22:08.460Z,25.47
2023-01-11T20:24:36.959Z,27.07
2023-01-11T20:27:06.440Z,27.17
2023-01-11T20:29:34.939Z,28.17
2023-01-11T20:32:27.642Z,32.57
2023-01-11T20:34:53.019Z,29.43
2023-01-11T20:37:22.895Z,25.13
2023-01-11T20:39:51.422Z,30.53
2023-01-11T20:42:19.959Z,32.03
2023-01-11T20:44:48.533Z,27.63
2023-01-11T20:47:17.053Z,27.53
2023-01-11T20:49:45.651Z,37.47
2023-01-11T20:52:14.248Z,40.10
2023-01-11T20:54:44.140Z,23.73
2023-01-11T20:57:13.001Z,28.00
2023-01-11T20:59:41.525Z,28.43
2023-01-11T21:02:13.685Z,28.93
2023-01-11T21:04:42.262Z,31.20
2023-01-11T21:07:10.811Z,24.73
2023-01-11T21:09:39.361Z,27.23
2023-01-11T21:12:09.675Z,28.27
2023-01-11T21:14:39.135Z,24.20
2023-01-11T21:17:09.202Z,19.70
2023-01-11T21:19:38.163Z,20.70
2023-01-11T21:22:06.925Z,20.13
2023-01-11T21:24:38.644Z,20.07
2023-01-11T21:27:08.960Z,23.40
2023-01-11T21:29:37.523Z,28.27
2023-01-11T21:32:07.201Z,23.87
2023-01-11T21:34:35.699Z,20.37
2023-01-11T21:37:04.275Z,22.47
2023-01-11T21:39:32.770Z,21.23
2023-01-11T21:42:03.578Z,29.53
2023-01-11T21:44:35.051Z,23.53
2023-01-11T21:47:05.209Z,19.60
2023-01-11T21:49:34.175Z,20.97
2023-01-11T21:52:02.637Z,22.47
2023-01-11T21:54:31.085Z,21.27
2023-01-11T21:56:59.595Z,18.63
2023-01-11T21:59:30.102Z,21.17
2023-01-11T22:02:00.031Z,15.23
2023-01-11T22:04:28.504Z,15.40
2023-01-11T22:06:58.089Z,22.13
2023-01-11T22:09:28.025Z,21.70
2023-01-11T22:11:56.728Z,18.77
2023-01-11T22:14:25.225Z,17.90
2023-01-11T22:16:54.279Z,14.53
2023-01-11T22:19:24.361Z,21.50
2023-01-11T22:21:52.925Z,25.53
2023-01-11T22:24:21.628Z,25.00
2023-01-11T22:26:50.114Z,18.10
2023-01-11T22:29:20.022Z,16.43
2023-01-11T22:31:51.366Z,17.53
2023-01-11T22:34:20.538Z,23.60
2023-01-11T22:36:51.212Z,13.80
2023-01-11T22:39:20.209Z,15.30
2023-01-11T22:41:49.666Z,16.87
2023-01-11T22:44:19.576Z,17.33
2023-01-11T22:46:48.288Z,15.57
2023-01-11T22:49:17.554Z,13.67
2023-01-11T22:51:46.338Z,14.57
2023-01-11T22:54:16.316Z,13.40
2023-01-11T22:56:45.066Z,13.40
2023-01-11T22:59:13.560Z,13.77
2023-01-11T23:01:43.119Z,15.30
2023-01-11T23:04:14.298Z,15.03
2023-01-11T23:06:44.000Z,15.00
2023-01-11T23:09:16.046Z,13.73
2023-01-11T23:12:04.302Z,15.27
2023-01-11T23:14:33.867Z,14.20
2023-01-11T23:17:05.236Z,17.97
2023-01-11T23:19:34.394Z,14.93
2023-01-11T23:22:03.005Z,15.27
2023-01-11T23:24:31.739Z,22.93
2023-01-11T23:27:01.630Z,19.83
2023-01-11T23:29:30.203Z,17.80
2023-01-11T23:31:58.698Z,17.53
2023-01-11T23:34:27.371Z,15.90
2023-01-11T23:36:55.927Z,19.47
2023-01-11T23:39:24.879Z,15.53
2023-01-11T23:42:10.561Z,17.30
2023-01-11T23:44:41.401Z,14.37
2023-01-11T23:47:29.862Z,12.43
2023-01-11T23:50:00.464Z,10.90
2023-01-11T23:52:30.425Z,10.30
2023-01-11T23:54:58.972Z,10.40
2023-01-11T23:57:28.173Z,14.47
2023-01-11T23:59:57.987Z,8.93
